Time;durP1;ratioP1;P1;durP2;ratioP2;P2;SDS_P1;SDS_P2;PMS_P1;PMS_P2;Temp;Humidity;BMP_temperature;BMP_pressure;BME280_temperature;BME280_humidity;BME280_pressure;Samples;Min_cycle;Max_cycle;Signal;HPM_P1;HPM_P2
2021/08/17 00:02:10;;;;;;;6.72;1.63;;;15.50;76.10;;;;;;5019364;28;96265;-50
2021/08/17 00:04:40;;;;;;;2.33;1.23;;;15.60;75.90;;;;;;5007486;28;96108;-54
2021/08/17 00:07:13;;;;;;;2.00;1.30;;;15.70;76.00;;;;;;5025640;28;96390;-52
2021/08/17 00:09:43;;;;;;;4.95;1.33;;;15.80;75.90;;;;;;5025931;27;95756;-51
2021/08/17 00:12:13;;;;;;;1.67;1.40;;;15.80;75.80;;;;;;5025690;28;96462;-50
2021/08/17 00:14:43;;;;;;;2.38;1.05;;;16.00;75.80;;;;;;5026377;27;95913;-51
2021/08/17 00:17:13;;;;;;;2.08;0.90;;;16.00;75.70;;;;;;5003172;28;97047;-53
2021/08/17 00:19:46;;;;;;;2.85;1.35;;;16.10;75.60;;;;;;5023644;27;96369;-48
2021/08/17 00:22:22;;;;;;;1.70;1.30;;;16.10;75.50;;;;;;5038659;27;96040;-50
2021/08/17 00:24:54;;;;;;;2.38;1.30;;;16.20;75.40;;;;;;5024876;27;95799;-50
2021/08/17 00:27:25;;;;;;;4.00;1.50;;;16.30;75.50;;;;;;5023544;27;95902;-50
2021/08/17 00:29:56;;;;;;;1.17;0.88;;;16.30;75.30;;;;;;5023141;27;95754;-51
2021/08/17 00:32:27;;;;;;;2.90;1.02;;;16.40;75.30;;;;;;5019056;27;96725;-50
2021/08/17 00:34:58;;;;;;;1.52;1.05;;;16.40;75.10;;;;;;4997965;27;96299;-49
2021/08/17 00:37:30;;;;;;;1.85;1.15;;;16.50;75.10;;;;;;5019849;27;98849;-49
2021/08/17 00:40:01;;;;;;;2.28;0.75;;;16.60;75.00;;;;;;5025796;27;96727;-51
2021/08/17 00:42:45;;;;;;;2.08;1.17;;;16.60;74.90;;;;;;5025034;28;95784;-48
2021/08/17 00:45:22;;;;;;;1.65;1.08;;;16.70;74.90;;;;;;5001609;28;96002;-50
2021/08/17 00:47:54;;;;;;;2.50;0.90;;;16.70;74.80;;;;;;5024182;28;102743;-49
2021/08/17 00:50:35;;;;;;;3.33;1.30;;;16.80;74.60;;;;;;5024500;27;96549;-48
2021/08/17 00:53:07;;;;;;;1.55;0.95;;;16.80;74.50;;;;;;5023703;28;95742;-49
2021/08/17 00:55:37;;;;;;;;;;;16.80;74.50;;;;;;5006041;28;98002;-47
2021/08/17 00:58:07;;;;;;;2.67;1.00;;;16.90;74.50;;;;;;5024232;27;95836;-54
2021/08/17 01:00:37;;;;;;;1.35;0.90;;;17.00;74.50;;;;;;5017199;27;95728;-47
2021/08/17 01:03:07;;;;;;;1.35;0.80;;;17.00;73.60;;;;;;5024871;28;95857;-51
2021/08/17 01:05:37;;;;;;;1.45;0.90;;;17.00;74.00;;;;;;5023463;27;96546;-51
2021/08/17 01:08:10;;;;;;;1.33;1.13;;;17.00;73.90;;;;;;5023128;28;97633;-51
2021/08/17 01:10:41;;;;;;;1.17;0.90;;;17.10;73.80;;;;;;5022400;27;96398;-49
2021/08/17 01:13:12;;;;;;;1.73;0.93;;;17.10;73.80;;;;;;5024950;28;95983;-49
2021/08/17 01:15:42;;;;;;;3.00;1.05;;;17.20;73.80;;;;;;5020165;27;97429;-53
2021/08/17 01:18:13;;;;;;;1.42;1.00;;;17.20;73.70;;;;;;5005960;28;96308;-51
2021/08/17 01:20:50;;;;;;;0.98;0.80;;;17.20;73.60;;;;;;5023533;27;96109;-52
2021/08/17 01:23:24;;;;;;;1.95;0.82;;;17.30;73.50;;;;;;5024881;28;95789;-51
2021/08/17 01:25:54;;;;;;;1.08;0.88;;;17.30;73.50;;;;;;5023532;27;95903;-52
2021/08/17 01:28:25;;;;;;;0.60;0.60;;;17.40;73.50;;;;;;5024208;28;96600;-52
2021/08/17 01:31:06;;;;;;;3.90;1.10;;;17.40;73.30;;;;;;5017806;28;95955;-54
2021/08/17 01:33:38;;;;;;;2.20;0.90;;;17.40;73.20;;;;;;5021575;27;96259;-52
2021/08/17 01:36:09;;;;;;;2.97;1.00;;;17.50;73.10;;;;;;5012342;28;97250;-52
2021/08/17 01:38:47;;;;;;;1.23;0.90;;;17.50;73.20;;;;;;5024588;27;95938;-48
2021/08/17 01:41:18;;;;;;;1.88;1.40;;;17.60;73.30;;;;;;5021615;28;98933;-50
2021/08/17 01:43:50;;;;;;;1.42;0.73;;;17.70;73.50;;;;;;5022721;27;96512;-52
2021/08/17 01:46:23;;;;;;;1.13;0.73;;;17.70;73.30;;;;;;5019241;28;95777;-50
2021/08/17 01:48:54;;;;;;;1.20;0.77;;;17.80;73.30;;;;;;5022821;27;95863;-50
2021/08/17 01:51:25;;;;;;;;;;;17.80;73.10;;;;;;5023993;27;96469;-49
2021/08/17 01:53:56;;;;;;;1.10;0.77;;;17.90;73.10;;;;;;5025862;27;95757;-49
2021/08/17 01:56:29;;;;;;;1.60;0.98;;;18.00;73.10;;;;;;5024709;28;97979;-48
2021/08/17 01:59:01;;;;;;;1.10;0.60;;;18.00;72.80;;;;;;5022167;27;96733;-50
2021/08/17 02:01:31;;;;;;;2.95;0.70;;;18.10;72.70;;;;;;5015087;28;96199;-51
2021/08/17 02:04:02;;;;;;;2.37;0.60;;;18.10;72.70;;;;;;5024135;27;95807;-53
2021/08/17 02:06:34;;;;;;;1.83;0.70;;;18.10;72.70;;;;;;5023860;28;95351;-51
2021/08/17 02:09:07;;;;;;;0.85;0.60;;;18.20;72.60;;;;;;5023888;27;96621;-51
2021/08/17 02:11:38;;;;;;;1.30;0.80;;;18.20;72.50;;;;;;5036985;27;97051;-52
2021/08/17 02:14:08;;;;;;;1.35;0.95;;;18.30;72.60;;;;;;5023704;27;95730;-49
2021/08/17 02:16:39;;;;;;;1.85;1.00;;;18.30;72.30;;;;;;5011594;27;95388;-54
2021/08/17 02:19:12;;;;;;;2.85;0.68;;;18.30;70.00;;;;;;5021432;27;95904;-52
2021/08/17 02:21:43;;;;;;;1.83;0.85;;;18.20;69.30;;;;;;5022366;28;95895;-54
2021/08/17 02:24:16;;;;;;;1.55;1.10;;;18.10;69.50;;;;;;5023837;27;98072;-55
2021/08/17 02:26:46;;;;;;;2.40;1.23;;;17.90;69.70;;;;;;5022482;27;95900;-53
2021/08/17 02:29:18;;;;;;;3.53;1.52;;;17.90;69.60;;;;;;5022921;27;96851;-55
2021/08/17 02:31:50;;;;;;;3.10;1.50;;;17.90;69.60;;;;;;5013639;27;96228;-54
2021/08/17 02:34:22;;;;;;;2.20;1.23;;;17.80;69.70;;;;;;5015946;27;95976;-53
2021/08/17 02:36:53;;;;;;;3.05;1.27;;;17.80;69.70;;;;;;5015400;28;95961;-53
2021/08/17 02:39:23;;;;;;;3.40;1.52;;;17.70;69.70;;;;;;5023895;27;95834;-53
2021/08/17 02:41:53;;;;;;;3.67;1.67;;;17.60;70.00;;;;;;5037884;27;96164;-54
2021/08/17 02:44:24;;;;;;;2.47;1.48;;;17.60;70.20;;;;;;5022913;27;95984;-51
2021/08/17 02:46:54;;;;;;;3.88;2.30;;;17.60;70.30;;;;;;5018196;28;96913;-51
2021/08/17 02:49:24;;;;;;;7.15;3.65;;;17.60;70.50;;;;;;5020752;27;96100;-55
2021/08/17 02:51:56;;;;;;;10.70;5.30;;;17.60;70.30;;;;;;5021518;28;95997;-50
2021/08/17 02:54:27;;;;;;;8.30;5.82;;;17.60;70.50;;;;;;5023047;27;95556;-51
2021/08/17 02:56:59;;;;;;;8.18;6.47;;;17.60;70.50;;;;;;5006059;28;96817;-51
2021/08/17 02:59:28;;;;;;;7.15;6.55;;;17.60;70.60;;;;;;5023251;27;95866;-50
2021/08/17 03:01:59;;;;;;;6.68;5.53;;;17.70;70.60;;;;;;5017296;27;95907;-51
2021/08/17 03:04:30;;;;;;;6.88;6.18;;;17.70;70.50;;;;;;5020878;27;96599;-52
2021/08/17 03:07:06;;;;;;;7.75;5.95;;;17.80;70.60;;;;;;5018574;27;96096;-54
2021/08/17 03:09:36;;;;;;;7.13;6.40;;;17.80;71.00;;;;;;5016711;27;96862;-55
2021/08/17 03:12:06;;;;;;;6.32;5.43;;;17.80;70.20;;;;;;5023254;27;96083;-52
2021/08/17 03:14:36;;;;;;;5.55;5.05;;;17.80;70.20;;;;;;4996664;28;95805;-56
2021/08/17 03:17:08;;;;;;;5.43;4.93;;;17.80;70.20;;;;;;5017856;27;98486;-53
2021/08/17 03:19:39;;;;;;;5.28;4.85;;;17.80;70.20;;;;;;5023185;28;96470;-54
2021/08/17 03:22:10;;;;;;;5.18;4.78;;;17.80;70.20;;;;;;5002429;28;96231;-54
2021/08/17 03:24:40;;;;;;;5.30;4.83;;;17.80;70.30;;;;;;5020597;28;95889;-52
2021/08/17 03:27:10;;;;;;;6.40;4.78;;;17.90;70.90;;;;;;5022661;27;95282;-53
2021/08/17 03:29:42;;;;;;;5.65;4.70;;;17.90;71.20;;;;;;5025716;28;96416;-50
2021/08/17 03:32:14;;;;;;;5.20;4.78;;;17.90;71.20;;;;;;5022137;27;97947;-50
2021/08/17 03:34:46;;;;;;;5.28;4.60;;;18.00;71.10;;;;;;5014675;27;96544;-53
2021/08/17 03:37:17;;;;;;;5.25;4.32;;;18.00;71.10;;;;;;5015630;27;96950;-53
2021/08/17 03:39:48;;;;;;;4.72;4.10;;;18.00;71.10;;;;;;5006294;28;96533;-53
2021/08/17 03:42:18;;;;;;;4.25;3.80;;;18.00;71.00;;;;;;5025391;27;96730;-51
2021/08/17 03:44:50;;;;;;;5.70;4.50;;;18.00;70.70;;;;;;5026436;28;96499;-53
2021/08/17 03:47:19;;;;;;;4.78;4.25;;;18.00;70.70;;;;;;5002483;27;96025;-52
2021/08/17 03:49:51;;;;;;;5.05;4.65;;;18.00;70.60;;;;;;5007496;27;97763;-56
2021/08/17 03:52:24;;;;;;;5.43;4.55;;;18.00;70.70;;;;;;5025595;27;95297;-53
2021/08/17 03:54:56;;;;;;;5.75;5.22;;;18.10;71.10;;;;;;5024287;28;95980;-56
2021/08/17 03:57:26;;;;;;;6.05;5.45;;;18.10;70.90;;;;;;5025038;27;95747;-58
2021/08/17 03:59:56;;;;;;;4.82;4.32;;;18.20;71.10;;;;;;5025478;28;96613;-54
2021/08/17 04:02:26;;;;;;;4.80;4.40;;;18.20;71.00;;;;;;5001833;28;95803;-55
2021/08/17 04:04:57;;;;;;;5.50;4.47;;;18.30;71.00;;;;;;5026375;28;95786;-56
2021/08/17 04:07:26;;;;;;;5.40;4.80;;;18.30;71.00;;;;;;5008086;27;95892;-57
2021/08/17 04:09:57;;;;;;;4.65;4.22;;;18.30;71.30;;;;;;5040788;27;97396;-51
2021/08/17 04:12:28;;;;;;;4.43;4.03;;;18.30;71.50;;;;;;5023974;27;96559;-53
2021/08/17 04:14:58;;;;;;;4.80;4.30;;;18.40;71.60;;;;;;5023714;27;96204;-57
2021/08/17 04:17:29;;;;;;;;;;;18.40;71.40;;;;;;5021756;28;95906;-54
2021/08/17 04:20:00;;;;;;;4.53;3.63;;;18.60;71.40;;;;;;5026412;27;98752;-56
2021/08/17 04:22:32;;;;;;;4.07;3.78;;;18.70;71.20;;;;;;5024478;27;97087;-55
2021/08/17 04:25:05;;;;;;;5.55;3.97;;;18.80;71.00;;;;;;5024520;27;95769;-56
2021/08/17 04:27:36;;;;;;;4.72;3.60;;;19.00;70.70;;;;;;5023861;27;98456;-51
2021/08/17 04:30:08;;;;;;;4.00;3.53;;;19.10;70.50;;;;;;5018396;27;95791;-55
2021/08/17 04:32:39;;;;;;;3.03;2.83;;;19.30;70.30;;;;;;5022289;27;96054;-51
2021/08/17 04:35:11;;;;;;;3.97;3.63;;;19.40;70.10;;;;;;5010884;27;96218;-51
2021/08/17 04:37:41;;;;;;;3.38;3.08;;;19.50;69.80;;;;;;5016851;27;95972;-52
2021/08/17 04:40:12;;;;;;;3.85;2.97;;;19.60;69.70;;;;;;5024503;27;96324;-55
2021/08/17 04:42:43;;;;;;;3.40;2.90;;;19.70;69.60;;;;;;5025216;28;95503;-57
2021/08/17 04:45:14;;;;;;;2.95;2.75;;;19.90;69.40;;;;;;5020864;27;95934;-56
2021/08/17 04:47:46;;;;;;;2.75;2.55;;;20.00;69.10;;;;;;5024063;28;96109;-55
2021/08/17 04:50:19;;;;;;;2.63;2.42;;;20.10;69.00;;;;;;5024862;27;95866;-56
2021/08/17 04:52:51;;;;;;;3.75;2.55;;;20.20;68.90;;;;;;5025267;28;96097;-54
2021/08/17 04:55:22;;;;;;;3.45;2.38;;;20.20;68.70;;;;;;5006786;28;95948;-55
2021/08/17 04:57:58;;;;;;;2.60;2.33;;;20.30;68.60;;;;;;5025891;28;96393;-55
2021/08/17 05:00:29;;;;;;;2.80;2.60;;;20.30;68.50;;;;;;5021031;27;96596;-55
2021/08/17 05:03:01;;;;;;;3.20;2.17;;;20.40;68.40;;;;;;5022606;28;101742;-53
2021/08/17 05:05:31;;;;;;;2.85;2.58;;;20.50;68.30;;;;;;5025331;27;96698;-52
2021/08/17 05:08:10;;;;;;;2.40;2.28;;;20.50;68.20;;;;;;5025599;28;95762;-53
2021/08/17 05:10:41;;;;;;;2.33;2.03;;;20.60;68.10;;;;;;5005972;28;95923;-53
2021/08/17 05:13:11;;;;;;;2.53;2.10;;;20.60;68.00;;;;;;5024226;27;95814;-50
2021/08/17 05:15:43;;;;;;;1.95;1.80;;;20.70;68.00;;;;;;5020320;27;95840;-53
2021/08/17 05:18:14;;;;;;;2.33;2.10;;;20.80;67.90;;;;;;5025059;28;97821;-53
2021/08/17 05:20:45;;;;;;;2.38;2.17;;;20.80;67.80;;;;;;5023721;27;96655;-51
2021/08/17 05:23:16;;;;;;;2.15;2.05;;;20.90;67.80;;;;;;5024428;28;95709;-54
2021/08/17 05:25:47;;;;;;;2.08;1.98;;;20.90;67.60;;;;;;5024932;27;95285;-53
2021/08/17 05:28:17;;;;;;;1.83;1.70;;;21.00;67.60;;;;;;5024733;28;95958;-55
2021/08/17 05:30:50;;;;;;;1.73;1.63;;;21.00;67.50;;;;;;5020457;27;96590;-55
2021/08/17 05:33:21;;;;;;;1.70;1.60;;;21.00;67.60;;;;;;5022667;27;96512;-54
2021/08/17 05:35:52;;;;;;;2.33;2.13;;;21.10;67.50;;;;;;5007652;27;95785;-51
2021/08/17 05:38:23;;;;;;;;;;;21.10;67.40;;;;;;5021558;27;96106;-52
2021/08/17 05:40:58;;;;;;;1.60;1.50;;;21.10;67.40;;;;;;5022986;27;96424;-54
2021/08/17 05:43:28;;;;;;;1.42;1.25;;;21.20;67.30;;;;;;5023185;27;95835;-55
2021/08/17 05:46:06;;;;;;;2.15;1.70;;;21.20;67.30;;;;;;5020036;27;96482;-54
2021/08/17 05:48:40;;;;;;;1.67;1.52;;;21.30;67.20;;;;;;5006045;28;95870;-53
2021/08/17 05:51:12;;;;;;;1.52;1.42;;;21.30;67.10;;;;;;5004341;27;97249;-53
2021/08/17 05:53:43;;;;;;;1.30;1.20;;;21.30;67.10;;;;;;5022664;28;95903;-52
2021/08/17 05:56:15;;;;;;;3.75;1.40;;;21.40;67.20;;;;;;5023368;27;96011;-57
2021/08/17 05:58:45;;;;;;;1.13;1.08;;;21.40;67.70;;;;;;5024602;28;96052;-52
2021/08/17 06:01:15;;;;;;;1.73;1.48;;;21.50;67.00;;;;;;5000399;28;97054;-53
2021/08/17 06:03:53;;;;;;;1.38;1.27;;;21.50;67.00;;;;;;5024835;27;95586;-52
2021/08/17 06:06:23;;;;;;;1.23;1.23;;;21.50;66.90;;;;;;5022875;27;96158;-54
2021/08/17 06:08:55;;;;;;;2.33;1.30;;;21.50;66.90;;;;;;5023021;27;96599;-56
2021/08/17 06:11:25;;;;;;;2.03;1.85;;;21.50;66.20;;;;;;5021287;27;97325;-56
2021/08/17 06:13:56;;;;;;;2.28;2.03;;;21.30;64.10;;;;;;5021065;27;95787;-54
2021/08/17 06:16:26;;;;;;;1.80;1.67;;;21.10;64.20;;;;;;5018815;27;95392;-52
2021/08/17 06:18:58;;;;;;;2.05;1.55;;;20.90;64.70;;;;;;5024203;27;95916;-55
2021/08/17 06:21:28;;;;;;;;;;;20.80;64.90;;;;;;5024056;28;95933;-57
2021/08/17 06:23:59;;;;;;;2.40;1.65;;;20.70;65.30;;;;;;5025422;27;96080;-55
2021/08/17 06:26:29;;;;;;;1.70;1.60;;;20.50;65.80;;;;;;5022373;28;96270;-56
2021/08/17 06:29:01;;;;;;;4.18;2.80;;;20.40;65.60;;;;;;5005903;28;95394;-55
2021/08/17 06:31:33;;;;;;;4.50;4.00;;;20.30;65.80;;;;;;5000789;28;96510;-57
2021/08/17 06:34:04;;;;;;;5.90;4.68;;;20.20;65.90;;;;;;5016753;27;95486;-55
2021/08/17 06:36:36;;;;;;;5.82;5.13;;;20.10;66.20;;;;;;5012228;28;97111;-55
2021/08/17 06:39:08;;;;;;;6.13;4.95;;;20.10;66.40;;;;;;5022126;27;96140;-51
2021/08/17 06:41:39;;;;;;;5.72;5.05;;;20.00;66.60;;;;;;5021336;28;96579;-55
2021/08/17 06:44:10;;;;;;;6.72;5.45;;;19.90;66.80;;;;;;5020357;27;95954;-56
2021/08/17 06:46:41;;;;;;;9.80;5.87;;;19.80;66.90;;;;;;5016765;28;96200;-55
2021/08/17 06:49:12;;;;;;;6.47;5.85;;;19.80;67.10;;;;;;5003764;28;96324;-55
2021/08/17 06:51:43;;;;;;;7.43;4.82;;;19.70;67.20;;;;;;5021960;28;95974;-56
2021/08/17 06:54:14;;;;;;;7.88;5.82;;;19.70;67.20;;;;;;5023655;27;96765;-55
2021/08/17 06:56:45;;;;;;;6.03;5.22;;;19.70;67.30;;;;;;5024209;28;95957;-55
2021/08/17 06:59:15;;;;;;;8.40;5.80;;;19.60;67.40;;;;;;4987936;28;95970;-55
2021/08/17 07:01:44;;;;;;;6.68;5.57;;;19.60;67.50;;;;;;5017446;28;95842;-55
2021/08/17 07:04:15;;;;;;;7.07;4.82;;;19.60;67.50;;;;;;5025365;27;95804;-54
2021/08/17 07:06:46;;;;;;;7.38;4.75;;;19.50;67.60;;;;;;5007432;28;96790;-56
2021/08/17 07:09:17;;;;;;;6.57;5.10;;;19.50;67.70;;;;;;5026793;27;97794;-56
2021/08/17 07:11:46;;;;;;;5.97;4.40;;;19.50;67.80;;;;;;5026447;28;96398;-55
2021/08/17 07:14:16;;;;;;;5.30;4.22;;;19.50;67.80;;;;;;5025464;27;95889;-55
2021/08/17 07:16:47;;;;;;;6.18;4.15;;;19.40;67.80;;;;;;5020426;27;96397;-57
2021/08/17 07:19:20;;;;;;;4.93;3.70;;;19.40;68.00;;;;;;5025280;27;95346;-57
2021/08/17 07:21:52;;;;;;;8.57;3.70;;;19.30;68.40;;;;;;5026774;27;96567;-58
2021/08/17 07:24:23;;;;;;;6.55;3.88;;;19.30;68.60;;;;;;5025837;27;95820;-56
2021/08/17 07:26:54;;;;;;;;;;;19.40;68.90;;;;;;4993639;28;95658;-56
2021/08/17 07:29:25;;;;;;;5.03;3.70;;;19.40;69.20;;;;;;5026952;27;95869;-56
2021/08/17 07:31:56;;;;;;;4.00;3.13;;;19.40;68.90;;;;;;5018379;27;96347;-54
2021/08/17 07:34:26;;;;;;;3.58;3.13;;;19.50;68.90;;;;;;5015904;27;96145;-55
2021/08/17 07:36:57;;;;;;;4.10;2.95;;;19.40;68.70;;;;;;5014705;27;95927;-54
2021/08/17 07:39:28;;;;;;;4.07;2.97;;;19.50;68.80;;;;;;5025381;27;95274;-57
2021/08/17 07:42:00;;;;;;;3.45;3.15;;;19.40;68.80;;;;;;5025064;27;96899;-55
2021/08/17 07:44:31;;;;;;;4.65;3.03;;;19.40;68.80;;;;;;5026453;28;95785;-55
2021/08/17 07:47:02;;;;;;;5.63;3.45;;;19.40;68.90;;;;;;5022093;27;95365;-55
2021/08/17 07:49:34;;;;;;;3.45;3.05;;;19.40;68.80;;;;;;5024475;27;95950;-57
2021/08/17 07:52:06;;;;;;;;;;;19.40;68.80;;;;;;5024170;27;95834;-57
2021/08/17 07:54:37;;;;;;;4.72;2.80;;;19.30;68.80;;;;;;5027367;27;97013;-56
2021/08/17 07:57:09;;;;;;;2.88;2.50;;;19.30;68.80;;;;;;5007149;28;96723;-56
2021/08/17 07:59:40;;;;;;;4.43;2.70;;;19.30;68.70;;;;;;5024755;27;96094;-57
2021/08/17 08:02:10;;;;;;;3.80;2.43;;;19.30;68.70;;;;;;5021117;27;96673;-56
2021/08/17 08:04:40;;;;;;;2.60;2.20;;;19.30;68.80;;;;;;5025341;28;95847;-55
2021/08/17 08:07:10;;;;;;;3.75;2.13;;;19.30;68.70;;;;;;5024286;27;96473;-58
2021/08/17 08:09:41;;;;;;;4.60;2.28;;;19.20;68.70;;;;;;5025344;28;96219;-56
2021/08/17 08:12:13;;;;;;;2.80;2.22;;;19.30;68.80;;;;;;5007668;28;96771;-54
2021/08/17 08:14:45;;;;;;;2.42;2.15;;;19.20;68.70;;;;;;5024430;27;95887;-56
2021/08/17 08:17:15;;;;;;;;;;;19.20;68.70;;;;;;5020605;27;95954;-58
2021/08/17 08:19:46;;;;;;;3.10;2.57;;;19.20;68.80;;;;;;5025309;27;95887;-57
2021/08/17 08:22:18;;;;;;;5.25;2.80;;;19.10;68.50;;;;;;5004457;27;97857;-56
2021/08/17 08:24:48;;;;;;;2.35;2.15;;;19.00;68.30;;;;;;5020468;27;96679;-57
2021/08/17 08:27:18;;;;;;;3.67;2.83;;;18.80;68.70;;;;;;5023046;27;96908;-53
2021/08/17 08:29:48;;;;;;;3.20;2.42;;;18.70;69.30;;;;;;5024019;27;95975;-55
2021/08/17 08:32:20;;;;;;;4.27;2.40;;;18.60;69.50;;;;;;5002865;27;95863;-55
2021/08/17 08:34:51;;;;;;;2.35;2.13;;;18.50;69.70;;;;;;5024996;27;95334;-55
2021/08/17 08:37:21;;;;;;;4.32;2.88;;;18.50;69.90;;;;;;5025686;28;96304;-56
2021/08/17 08:39:55;;;;;;;4.00;3.10;;;18.50;70.00;;;;;;5023488;27;97561;-56
2021/08/17 08:42:28;;;;;;;3.00;2.75;;;18.40;70.20;;;;;;5023718;28;96468;-54
2021/08/17 08:45:00;;;;;;;6.65;3.20;;;18.40;70.30;;;;;;5022707;27;95842;-56
2021/08/17 08:47:32;;;;;;;4.15;2.63;;;18.40;70.40;;;;;;5020318;27;95480;-56
2021/08/17 08:50:04;;;;;;;4.25;3.00;;;18.30;70.50;;;;;;5025566;27;95824;-56
2021/08/17 08:52:36;;;;;;;3.63;3.15;;;18.30;70.60;;;;;;5023662;27;96067;-55
2021/08/17 08:55:09;;;;;;;4.00;3.35;;;18.30;70.70;;;;;;5019711;27;95812;-56
2021/08/17 08:57:40;;;;;;;4.95;3.78;;;18.20;70.70;;;;;;5019084;27;95824;-56
2021/08/17 09:00:12;;;;;;;5.47;4.18;;;18.20;70.80;;;;;;5001993;28;95665;-55
2021/08/17 09:02:44;;;;;;;7.60;4.15;;;18.10;70.90;;;;;;5019891;27;95951;-56
2021/08/17 09:05:13;;;;;;;;;;;18.10;70.90;;;;;;5023854;27;95836;-51
2021/08/17 09:07:46;;;;;;;4.65;3.75;;;18.10;71.10;;;;;;5024243;27;95811;-56
2021/08/17 09:10:26;;;;;;;5.95;4.22;;;18.10;71.10;;;;;;5022589;27;95716;-56
2021/08/17 09:13:00;;;;;;;6.05;4.28;;;18.00;71.10;;;;;;5020573;27;95978;-56
2021/08/17 09:15:34;;;;;;;5.30;4.43;;;18.00;71.20;;;;;;5016551;27;96231;-51
2021/08/17 09:18:13;;;;;;;5.93;3.95;;;18.00;71.20;;;;;;5022611;27;96691;-51
2021/08/17 09:20:46;;;;;;;5.35;4.57;;;18.00;71.30;;;;;;5022649;27;96150;-54
2021/08/17 09:23:30;;;;;;;5.50;4.82;;;18.00;71.20;;;;;;5022421;27;95879;-51
2021/08/17 09:26:24;;;;;;;7.75;5.85;;;18.00;71.20;;;;;;5019164;27;96616;-51
2021/08/17 09:29:03;;;;;;;6.78;5.25;;;17.90;71.10;;;;;;5021761;27;96475;-52
2021/08/17 09:31:37;;;;;;;8.75;5.97;;;18.00;71.40;;;;;;5017774;27;97029;-51
2021/08/17 09:34:10;;;;;;;8.00;5.15;;;17.90;71.40;;;;;;5023180;27;95727;-56
2021/08/17 09:36:46;;;;;;;6.35;4.90;;;17.90;71.40;;;;;;5023066;27;96534;-52
2021/08/17 09:39:39;;;;;;;8.55;5.80;;;17.90;71.40;;;;;;5006103;28;95965;-53
2021/08/17 09:42:21;;;;;;;6.75;5.70;;;17.90;71.40;;;;;;5023758;27;95927;-52
2021/08/17 09:45:23;;;;;;;6.53;5.35;;;17.90;71.40;;;;;;5021007;27;96337;-50
2021/08/17 09:47:58;;;;;;;6.38;5.50;;;17.90;71.70;;;;;;5014721;27;96076;-51
2021/08/17 09:50:41;;;;;;;6.88;5.80;;;17.80;71.80;;;;;;5043063;27;95124;-55
2021/08/17 09:53:23;;;;;;;7.05;5.72;;;17.70;72.10;;;;;;5010012;28;95718;-54
2021/08/17 09:55:57;;;;;;;6.82;5.75;;;17.70;72.30;;;;;;5028398;27;95908;-56
2021/08/17 09:58:37;;;;;;;8.38;5.32;;;17.60;72.40;;;;;;5019050;27;95799;-57
2021/08/17 10:01:10;;;;;;;6.27;5.00;;;17.60;72.40;;;;;;5023489;27;100882;-52
2021/08/17 10:03:43;;;;;;;7.88;5.63;;;17.60;72.40;;;;;;5026319;27;95387;-56
2021/08/17 10:06:14;;;;;;;6.25;5.07;;;17.50;72.30;;;;;;5042967;27;96199;-51
2021/08/17 10:08:48;;;;;;;7.45;5.20;;;17.50;72.40;;;;;;5024699;27;95310;-55
2021/08/17 10:11:19;;;;;;;6.18;5.45;;;17.50;72.30;;;;;;5023888;27;95682;-56
2021/08/17 10:13:50;;;;;;;11.52;5.57;;;17.50;72.40;;;;;;5028458;27;96153;-54
2021/08/17 10:16:21;;;;;;;7.30;5.60;;;17.40;72.40;;;;;;5017426;27;96595;-54
2021/08/17 10:18:53;;;;;;;7.15;5.43;;;17.40;72.30;;;;;;5027517;27;95825;-54
2021/08/17 10:21:25;;;;;;;6.72;5.13;;;17.40;72.30;;;;;;5026463;27;96225;-55
2021/08/17 10:23:55;;;;;;;7.70;5.70;;;17.40;72.40;;;;;;5010219;27;96024;-54
2021/08/17 10:26:32;;;;;;;6.60;5.55;;;17.30;72.90;;;;;;5027646;27;95906;-54
2021/08/17 10:29:27;;;;;;;7.15;5.32;;;17.30;72.40;;;;;;5022307;27;95806;-56
2021/08/17 10:31:59;;;;;;;6.47;5.32;;;17.30;72.30;;;;;;5022802;27;96989;-53
2021/08/17 10:34:40;;;;;;;6.63;5.05;;;17.30;72.30;;;;;;5007730;27;96130;-54
2021/08/17 10:37:28;;;;;;;6.13;4.93;;;17.30;72.40;;;;;;5025130;27;95843;-55
2021/08/17 10:39:58;;;;;;;7.25;5.63;;;17.30;72.40;;;;;;5013726;27;96092;-53
2021/08/17 10:42:29;;;;;;;6.05;5.15;;;17.20;72.20;;;;;;5029899;27;95831;-53
2021/08/17 10:45:48;;;;;;;7.68;5.65;;;17.20;72.80;;;;;;5033304;27;95819;-54
2021/08/17 10:51:21;;;;;;;5.68;5.05;;;17.20;72.50;;;;;;4931271;28;96271;-53
2021/08/17 10:54:14;;;;;;;5.72;5.05;;;17.20;72.50;;;;;;4931463;28;96259;-54
2021/08/17 10:56:50;;;;;;;6.25;4.53;;;17.10;72.50;;;;;;4931235;28;95820;-56
2021/08/17 10:59:42;;;;;;;6.65;4.70;;;17.10;72.50;;;;;;4931258;28;95868;-56
2021/08/17 11:02:13;;;;;;;5.78;4.55;;;17.10;72.60;;;;;;4927121;28;95937;-54
2021/08/17 11:04:46;;;;;;;6.82;5.82;;;17.10;72.60;;;;;;4931929;28;95776;-54
2021/08/17 11:07:34;;;;;;;7.28;5.82;;;17.10;72.60;;;;;;4931467;28;95662;-56
2021/08/17 11:10:10;;;;;;;6.50;5.35;;;17.10;72.60;;;;;;4928994;28;96375;-53
2021/08/17 11:12:40;;;;;;;6.57;5.35;;;17.10;72.60;;;;;;4930921;28;96033;-55
2021/08/17 11:15:15;;;;;;;5.53;4.70;;;17.00;72.60;;;;;;4930262;28;95759;-56
2021/08/17 11:17:47;;;;;;;6.18;5.10;;;17.00;72.60;;;;;;4915928;28;95923;-54
2021/08/17 11:20:18;;;;;;;6.45;5.38;;;17.00;72.60;;;;;;4931877;28;97728;-56
2021/08/17 11:22:49;;;;;;;6.22;5.45;;;17.00;72.60;;;;;;5006627;28;96047;-52
2021/08/17 11:25:20;;;;;;;5.63;4.88;;;17.00;72.60;;;;;;5031861;27;95280;-55
2021/08/17 11:27:52;;;;;;;6.40;5.65;;;17.00;72.60;;;;;;5014216;28;95484;-57
2021/08/17 11:30:24;;;;;;;6.28;5.18;;;17.00;72.60;;;;;;5027892;27;96143;-55
2021/08/17 11:32:58;;;;;;;6.72;4.78;;;17.00;72.60;;;;;;5034010;28;101688;-54
2021/08/17 11:35:30;;;;;;;6.20;5.28;;;16.90;72.60;;;;;;5037112;27;96082;-55
2021/08/17 11:38:00;;;;;;;6.90;5.27;;;16.90;72.60;;;;;;5034912;28;95600;-53
2021/08/17 11:40:31;;;;;;;6.53;5.18;;;16.90;72.50;;;;;;5026053;27;96411;-54
2021/08/17 11:43:03;;;;;;;6.55;5.30;;;16.90;72.60;;;;;;5027448;28;96208;-53
2021/08/17 11:45:39;;;;;;;6.13;4.85;;;16.90;72.60;;;;;;5014363;27;95875;-55
2021/08/17 11:48:09;;;;;;;6.45;5.13;;;16.90;72.60;;;;;;5032598;27;95628;-52
2021/08/17 11:50:39;;;;;;;7.90;6.22;;;16.90;73.20;;;;;;5026597;27;96666;-56
2021/08/17 11:53:17;;;;;;;8.73;6.85;;;16.90;72.90;;;;;;5024810;27;95800;-56
2021/08/17 11:55:48;;;;;;;9.65;7.22;;;16.80;73.10;;;;;;5029977;27;95653;-54
2021/08/17 11:58:22;;;;;;;8.65;6.90;;;16.80;73.30;;;;;;5026478;27;95810;-55
2021/08/17 12:00:53;;;;;;;9.05;7.20;;;16.80;73.40;;;;;;5023058;27;96121;-57
2021/08/17 12:03:25;;;;;;;9.32;7.47;;;16.80;73.50;;;;;;5029503;27;95825;-56
2021/08/17 12:05:56;;;;;;;;;;;16.80;73.50;;;;;;5030185;27;95299;-55
2021/08/17 12:08:27;;;;;;;8.43;7.07;;;16.70;73.50;;;;;;5031016;27;95886;-54
2021/08/17 12:10:58;;;;;;;11.57;7.70;;;16.70;73.50;;;;;;5025526;27;96009;-56
2021/08/17 12:13:38;;;;;;;7.93;6.68;;;16.70;73.60;;;;;;5026003;27;96964;-55
2021/08/17 12:16:09;;;;;;;11.18;7.43;;;16.70;73.70;;;;;;5023551;27;95736;-56
2021/08/17 12:18:40;;;;;;;;;;;16.60;73.70;;;;;;5024830;27;95952;-55
2021/08/17 12:21:11;;;;;;;9.00;7.93;;;16.60;74.40;;;;;;5026298;27;95786;-54
2021/08/17 12:23:44;;;;;;;9.50;7.60;;;16.60;73.80;;;;;;5030736;27;95544;-51
2021/08/17 12:26:22;;;;;;;8.50;6.70;;;16.60;73.80;;;;;;5029740;27;95319;-57
2021/08/17 12:28:54;;;;;;;9.75;7.18;;;16.60;74.00;;;;;;5047138;27;95893;-55
2021/08/17 12:31:32;;;;;;;9.38;7.28;;;16.60;74.10;;;;;;5025287;27;96438;-55
2021/08/17 12:34:05;;;;;;;9.45;7.88;;;16.60;74.00;;;;;;5028832;27;96099;-55
2021/08/17 12:36:40;;;;;;;10.32;8.60;;;16.50;74.00;;;;;;5029344;27;96208;-56
2021/08/17 12:39:14;;;;;;;8.75;7.30;;;16.50;74.00;;;;;;5046193;27;95652;-56
2021/08/17 12:41:54;;;;;;;9.32;7.90;;;16.50;74.00;;;;;;5022849;27;95778;-57
2021/08/17 12:44:32;;;;;;;9.57;7.63;;;16.50;74.10;;;;;;5023230;27;96047;-53
2021/08/17 12:47:18;;;;;;;11.23;8.48;;;16.50;74.00;;;;;;5022523;27;95665;-54
2021/08/17 12:49:59;;;;;;;12.02;9.18;;;16.50;74.10;;;;;;5042821;27;95804;-58
2021/08/17 12:52:36;;;;;;;10.57;8.68;;;16.50;74.10;;;;;;5031037;27;97113;-55
2021/08/17 12:55:08;;;;;;;10.95;8.70;;;16.50;74.10;;;;;;5025349;27;95610;-57
2021/08/17 12:57:48;;;;;;;10.43;8.48;;;16.40;74.10;;;;;;5034079;27;95661;-54
2021/08/17 13:00:21;;;;;;;11.07;9.10;;;16.40;74.20;;;;;;5010893;27;95722;-56
2021/08/17 13:02:52;;;;;;;10.68;8.85;;;16.40;74.20;;;;;;5019784;27;95827;-56
2021/08/17 13:05:23;;;;;;;10.73;8.97;;;16.40;74.30;;;;;;5029552;28;97884;-55
2021/08/17 13:07:53;;;;;;;12.52;10.02;;;16.40;74.30;;;;;;5043589;27;95966;-54
2021/08/17 13:10:23;;;;;;;12.98;9.98;;;16.40;74.50;;;;;;5029432;27;95652;-57
2021/08/17 13:12:53;;;;;;;12.95;9.25;;;16.40;74.60;;;;;;5008987;28;96641;-54
2021/08/17 13:15:24;;;;;;;13.20;10.32;;;16.40;74.70;;;;;;5024791;27;95364;-55
2021/08/17 13:17:56;;;;;;;13.27;10.82;;;16.40;74.70;;;;;;5029223;28;96146;-55
2021/08/17 13:20:29;;;;;;;11.18;9.35;;;16.40;74.90;;;;;;5023840;27;95664;-55